Hauptseite
METAR-TAF:

METAR-TAF

Flughäfen :

Sligo, Irland

Breite: 54-16-49N, Länge: 8-35-57W, Höhe: 3 m

Beobachtung

Neuester Wetterbericht von vor 18 Minuten, um 13:30 UTC
Wind 3 kt aus unterschiedlichen Richtungen
Temperatur 20°C
Luftfeuchtigkeit 56%
Luftdruck 1035 hPa
Sichtweite 10 km oder mehr
keine Wolken unter 1500 m und keine Kumulonimbus oder Gewitterwolken

METAR: EISG 271330Z VRB03KT CAVOK 20/11 Q1035

Zeit: 14:48 (13:48 UTC)

Prognose

Neuester Wetterbericht von vor 2 Stunden und 48 Minuten, um 11:00 UTC
Gültige Prognose vom 27 um 12 UTC bis 27 um 21 UTC
Wind 3 kt aus unterschiedlichen Richtungen
Sichtweite 10 km oder mehr
Leicht bewölkt in der Höhe von 3000 ft

TAF: EISG 271100Z 2712/2721 VRB03KT 9999 FEW030

Wetterbeobachtungen und Prognosen von mehr als 4000 Flughäfen (METAR und TAF Bericht).

Die verfügbaren Stationen werden durch gelbe und rote Markierungen auf der Karte dargestellt.

Führen Sie die Maus auf sie, um den Namen der Station zu sehen.

Darauf klicken, um die Beobachtung von Wetterbeobachtungen und Prognosen zu sehen.

Um die Karte zu ändern : klicken Sie auf den grünen Tasten mit einem schwarzen Kreuz Zum Vergrößern, auf den grünen Button mit einem Gedankenstrich zu verkleinern, oder auf die grünen Pfeile für benachbarte Karten.


METAR-TAF: